Time;durP1;ratioP1;P1;durP2;ratioP2;P2;SDS_P1;SDS_P2;PMS_P1;PMS_P2;Temp;Humidity;BMP_temperature;BMP_pressure;BME280_temperature;BME280_humidity;BME280_pressure;Samples;Min_cycle;Max_cycle;Signal;HPM_P1;HPM_P2
2022/01/30 00:00:31;;;;;;;4.32;0.75;;;;;;;5.04;93.49;99916.88;5057912;28;20061;-88
2022/01/30 00:02:57;;;;;;;5.38;1.13;;;;;;;5.06;92.68;99890.78;5055042;28;20033;-87
2022/01/30 00:05:30;;;;;;;7.05;1.10;;;;;;;5.05;93.13;99904.72;5053815;28;20134;-88
2022/01/30 00:07:59;;;;;;;6.97;1.58;;;;;;;5.06;93.64;99930.63;5058186;28;20056;-88
2022/01/30 00:10:27;;;;;;;5.95;1.20;;;;;;;5.11;92.99;99922.56;5061292;28;20441;-88
2022/01/30 00:12:57;;;;;;;3.92;0.82;;;;;;;5.11;93.15;99948.56;5056477;28;20024;-88
2022/01/30 00:21:05;;;;;;;6.20;1.30;;;;;;;5.16;92.58;99905.00;5049378;28;20036;-90
2022/01/30 00:23:32;;;;;;;6.00;0.88;;;;;;;5.28;89.86;99916.53;5052861;28;20029;-89
2022/01/30 00:26:03;;;;;;;3.03;0.80;;;;;;;5.33;87.63;99912.78;5049022;28;20115;-89
2022/01/30 00:28:32;;;;;;;6.07;0.80;;;;;;;5.30;87.97;99888.69;5059420;28;20045;-89
2022/01/30 00:31:01;;;;;;;3.90;0.88;;;;;;;5.43;84.82;99910.53;5057484;28;20035;-89
2022/01/30 00:33:29;;;;;;;6.30;0.98;;;;;;;5.59;82.04;99932.22;5073962;28;20035;-89
2022/01/30 00:36:01;;;;;;;3.60;1.02;;;;;;;5.47;83.43;99916.44;5067406;28;20029;-90
2022/01/30 00:38:31;;;;;;;7.25;1.75;;;;;;;5.48;81.69;99934.53;5043989;28;20040;-89
2022/01/30 00:40:57;;;;;;;;;;;;;;;5.45;81.56;99923.47;5052635;28;20056;-91
2022/01/30 00:43:22;;;;;;;4.47;1.10;;;;;;;5.41;81.74;99934.94;5049027;28;19920;-88
2022/01/30 00:45:52;;;;;;;9.93;1.45;;;;;;;5.34;82.07;99926.63;5081167;28;20422;-89
2022/01/30 00:48:18;;;;;;;4.13;1.13;;;;;;;5.33;81.29;99914.53;5051970;28;20342;-88
2022/01/30 00:50:43;;;;;;;8.85;1.45;;;;;;;5.32;81.01;99926.69;5052056;28;20029;-88
2022/01/30 00:53:12;;;;;;;5.93;1.42;;;;;;;5.25;82.69;99937.47;5051609;28;20291;-87
2022/01/30 00:55:48;;;;;;;4.80;0.90;;;;;;;5.31;82.23;99932.00;5050442;28;20178;-88
2022/01/30 00:58:13;;;;;;;6.30;1.40;;;;;;;5.33;82.13;99946.56;5050529;28;20064;-87
2022/01/30 01:00:43;;;;;;;6.38;1.23;;;;;;;5.30;82.54;99931.16;5052430;28;20025;-88
2022/01/30 01:03:08;;;;;;;7.70;1.08;;;;;;;5.28;82.93;99932.13;5050841;28;20056;-87
2022/01/30 01:05:57;;;;;;;5.85;1.17;;;;;;;5.33;81.21;99941.38;5052845;28;20036;-88
2022/01/30 01:08:33;;;;;;;16.65;1.95;;;;;;;5.46;78.47;99930.34;5044331;28;20033;-87
2022/01/30 01:11:27;;;;;;;8.18;1.92;;;;;;;5.48;75.66;99936.31;5049965;28;20028;-87
2022/01/30 01:24:45;;;;;;;12.98;1.80;;;;;;;5.30;72.21;99979.66;5048456;28;20418;-87
2022/01/30 01:27:13;;;;;;;15.40;2.45;;;;;;;5.36;71.39;99962.94;5050398;28;20057;-88
2022/01/30 01:29:38;;;;;;;14.88;2.47;;;;;;;5.34;70.18;99995.06;5049822;28;20113;-88
2022/01/30 01:32:04;;;;;;;11.10;1.85;;;;;;;5.37;69.58;99975.84;5052575;28;20114;-90
2022/01/30 01:34:35;;;;;;;11.70;2.55;;;;;;;5.33;69.84;99974.31;5053750;28;20033;-88
2022/01/30 01:37:09;;;;;;;17.95;2.70;;;;;;;5.25;70.18;99972.13;5046750;28;20120;-88
2022/01/30 01:39:37;;;;;;;15.98;2.53;;;;;;;5.28;69.83;99947.72;5055020;28;20028;-86
2022/01/30 01:42:04;;;;;;;20.83;2.63;;;;;;;5.21;70.70;99944.59;5053564;28;20040;-89
2022/01/30 01:44:38;;;;;;;15.63;2.45;;;;;;;5.25;69.15;99953.06;5053841;28;20040;-87
2022/01/30 01:47:04;;;;;;;14.15;2.20;;;;;;;5.15;69.76;99941.47;5051865;28;20087;-87
2022/01/30 01:49:32;;;;;;;20.60;2.95;;;;;;;4.98;71.15;99940.56;5052955;28;20033;-88
2022/01/30 01:54:52;;;;;;;14.30;2.28;;;;;;;4.98;71.26;99939.72;5048198;28;20025;-87
2022/01/30 01:57:18;;;;;;;15.77;2.20;;;;;;;5.02;71.51;99949.03;5052683;28;20047;-87
2022/01/30 01:59:47;;;;;;;16.23;2.70;;;;;;;5.01;71.47;99947.38;5054740;28;20079;-87
2022/01/30 02:02:12;;;;;;;10.10;1.92;;;;;;;5.00;71.27;99937.88;5052528;28;20060;-88
2022/01/30 02:04:41;;;;;;;18.42;2.47;;;;;;;4.98;70.96;99943.16;5049855;28;20037;-87
2022/01/30 02:07:40;;;;;;;;;;;;;;;5.01;70.93;99952.56;5039558;28;20074;-88
2022/01/30 02:10:02;;;;;;;10.25;2.58;;;;;;;5.02;70.79;99957.66;5055910;28;19908;-87
2022/01/30 02:12:36;;;;;;;17.13;2.60;;;;;;;5.02;70.65;99952.47;5038665;28;20033;-88
2022/01/30 02:26:01;;;;;;;15.20;2.85;;;;;;;4.90;70.26;99927.09;5055607;28;20071;-88
2022/01/30 02:28:33;;;;;;;13.38;2.47;;;;;;;4.89;70.80;99929.75;5064985;28;20100;-88
2022/01/30 02:31:06;;;;;;;14.75;2.38;;;;;;;4.89;71.08;99929.75;5057084;28;20021;-88
2022/01/30 02:33:33;;;;;;;11.25;1.80;;;;;;;4.91;71.14;99918.38;5054138;28;20067;-87
2022/01/30 02:35:58;;;;;;;13.00;2.22;;;;;;;4.92;71.08;99919.22;5053733;28;20035;-88
2022/01/30 02:38:25;;;;;;;16.13;2.25;;;;;;;4.94;71.06;99896.63;5054042;28;20096;-87
2022/01/30 02:40:55;;;;;;;18.63;2.83;;;;;;;4.93;71.72;99906.19;5055741;28;20089;-88
2022/01/30 02:43:26;;;;;;;16.98;2.58;;;;;;;4.91;71.65;99913.19;5054275;28;20033;-88
2022/01/30 02:48:57;;;;;;;12.77;2.13;;;;;;;4.96;70.96;99885.22;5076528;28;20051;-88
2022/01/30 02:51:34;;;;;;;13.23;1.70;;;;;;;5.02;70.30;99895.31;5072151;28;20534;-88
2022/01/30 02:54:07;;;;;;;16.38;2.35;;;;;;;5.02;70.44;99878.88;5060186;28;20120;-87
2022/01/30 02:56:35;;;;;;;19.67;2.75;;;;;;;5.02;69.72;99899.66;5057927;28;20068;-89
2022/01/30 02:59:00;;;;;;;14.68;2.30;;;;;;;5.01;69.92;99890.19;5052596;28;20041;-88
2022/01/30 03:01:26;;;;;;;8.95;1.80;;;;;;;5.03;69.58;99901.34;5051975;28;20029;-88
2022/01/30 03:03:51;;;;;;;10.68;2.75;;;;;;;5.03;69.42;99880.56;5052916;28;20120;-87
2022/01/30 03:06:16;;;;;;;15.35;2.58;;;;;;;5.00;69.57;99865.94;5053053;28;20135;-89
2022/01/30 03:08:42;;;;;;;13.38;2.38;;;;;;;5.00;69.21;99891.94;5052136;28;20044;-88
2022/01/30 03:11:07;;;;;;;16.88;2.00;;;;;;;4.92;69.94;99901.88;5052397;28;20041;-88
2022/01/30 03:13:33;;;;;;;7.03;1.70;;;;;;;4.86;70.00;99886.63;5069497;28;20037;-90
2022/01/30 03:16:03;;;;;;;15.65;2.13;;;;;;;4.84;69.58;99902.25;5054681;28;20025;-88
2022/01/30 03:18:45;;;;;;;13.90;2.92;;;;;;;4.86;68.74;99889.22;5047741;28;20087;-87
2022/01/30 03:21:11;;;;;;;14.65;2.47;;;;;;;4.77;69.29;99894.84;5052811;28;20036;-87
2022/01/30 03:23:38;;;;;;;10.63;1.95;;;;;;;4.80;68.93;99899.91;5052896;28;20040;-87
2022/01/30 03:26:04;;;;;;;18.00;3.15;;;;;;;4.71;68.50;99896.00;5055031;28;20033;-87
2022/01/30 03:28:39;;;;;;;9.93;1.95;;;;;;;4.87;67.32;99906.47;5052561;28;20150;-87
2022/01/30 03:31:07;;;;;;;12.63;2.00;;;;;;;4.85;66.39;99903.94;5053775;28;20029;-86
2022/01/30 03:33:33;;;;;;;10.20;1.83;;;;;;;4.87;66.46;99893.47;5052699;28;20385;-89
2022/01/30 03:35:59;;;;;;;8.88;1.70;;;;;;;4.91;65.33;99894.16;5043004;28;20037;-88
2022/01/30 03:38:26;;;;;;;13.77;2.28;;;;;;;4.88;65.25;99889.97;5052470;28;20482;-88
2022/01/30 03:40:52;;;;;;;22.27;2.95;;;;;;;4.83;65.10;99900.59;5052274;28;20029;-87
2022/01/30 03:43:18;;;;;;;9.93;1.90;;;;;;;4.86;64.80;99897.00;5048645;28;20334;-87
2022/01/30 03:45:44;;;;;;;15.00;2.03;;;;;;;4.84;64.92;99894.47;5050753;28;20120;-88
2022/01/30 03:48:10;;;;;;;23.55;2.90;;;;;;;4.70;66.01;99894.31;5052224;28;20041;-88
2022/01/30 03:50:36;;;;;;;8.98;1.55;;;;;;;4.63;66.71;99907.66;5052127;28;20039;-87
2022/01/30 03:53:02;;;;;;;14.80;2.45;;;;;;;4.56;66.48;99917.50;5050928;28;20153;-87
2022/01/30 03:55:28;;;;;;;18.17;2.38;;;;;;;4.59;66.56;99884.44;5050273;28;20029;-89
2022/01/30 03:57:59;;;;;;;7.85;1.80;;;;;;;4.56;66.50;99909.72;5042432;28;20027;-88
2022/01/30 04:00:25;;;;;;;13.35;1.90;;;;;;;4.55;66.33;99901.09;5053282;28;20013;-87
2022/01/30 04:02:51;;;;;;;12.20;2.40;;;;;;;4.69;64.68;99902.19;5053021;28;20508;-88
2022/01/30 04:05:17;;;;;;;16.58;2.47;;;;;;;4.78;64.44;99893.91;5052328;28;20124;-89
2022/01/30 04:07:47;;;;;;;18.15;2.63;;;;;;;4.74;64.32;99893.22;5058007;28;20021;-87
2022/01/30 04:10:16;;;;;;;15.13;2.60;;;;;;;4.65;65.37;99874.69;5061973;28;20112;-89
2022/01/30 04:12:42;;;;;;;12.80;2.80;;;;;;;4.64;65.32;99897.22;5061405;28;20158;-88
2022/01/30 04:15:08;;;;;;;11.63;2.20;;;;;;;4.60;65.33;99903.47;5068310;28;20053;-89
2022/01/30 04:17:34;;;;;;;13.13;1.70;;;;;;;4.55;65.89;99901.09;5060741;28;20147;-89
2022/01/30 04:20:00;;;;;;;18.10;2.47;;;;;;;4.44;66.40;99907.72;5061659;28;20037;-87
2022/01/30 04:22:26;;;;;;;6.30;1.45;;;;;;;4.44;66.33;99947.47;5061063;28;20525;-89
2022/01/30 04:24:52;;;;;;;16.30;1.88;;;;;;;4.46;66.47;99909.34;5058228;28;20021;-88
2022/01/30 04:27:20;;;;;;;25.88;2.63;;;;;;;4.44;67.28;99908.53;5063759;28;20075;-88
2022/01/30 04:29:45;;;;;;;14.60;2.22;;;;;;;4.43;67.15;99899.09;5055680;28;20052;-87
2022/01/30 04:32:13;;;;;;;13.43;2.53;;;;;;;4.38;67.84;99898.47;5060639;28;20182;-88
2022/01/30 04:34:39;;;;;;;14.80;2.63;;;;;;;4.41;66.85;99933.81;5053722;28;20060;-88
2022/01/30 04:37:12;;;;;;;14.30;2.10;;;;;;;4.47;66.89;99952.53;5054712;28;20465;-88
2022/01/30 04:40:07;;;;;;;13.80;2.28;;;;;;;4.53;66.90;99935.84;5051280;28;20021;-89
2022/01/30 04:52:03;;;;;;;10.57;1.80;;;;;;;4.46;66.92;99924.91;5051302;28;20051;-88
2022/01/30 05:01:52;;;;;;;10.73;2.35;;;;;;;4.80;65.63;99921.50;5049686;28;20114;-88
2022/01/30 05:09:24;;;;;;;16.08;2.55;;;;;;;5.00;64.47;99912.72;5053297;28;20044;-86
2022/01/30 05:11:49;;;;;;;10.45;2.00;;;;;;;5.03;63.80;99933.34;5049867;28;20033;-87
2022/01/30 05:14:15;;;;;;;13.07;2.97;;;;;;;5.05;63.99;99922.91;5053220;28;20068;-87
2022/01/30 05:16:44;;;;;;;14.90;2.53;;;;;;;5.05;63.79;99910.75;5053946;28;20040;-87
2022/01/30 05:19:12;;;;;;;8.90;1.48;;;;;;;5.09;63.45;99933.06;5054624;28;20044;-87
2022/01/30 05:21:38;;;;;;;18.48;2.55;;;;;;;5.16;62.28;99902.41;5054946;28;20085;-87
2022/01/30 05:24:06;;;;;;;14.52;2.10;;;;;;;5.28;61.60;99932.13;5054225;28;20033;-88
2022/01/30 05:26:32;;;;;;;16.08;3.00;;;;;;;5.28;61.58;99913.94;5059066;28;20033;-88
2022/01/30 05:28:58;;;;;;;25.20;2.60;;;;;;;5.29;60.83;99926.84;5050043;28;20059;-88
2022/01/30 05:31:24;;;;;;;20.05;2.80;;;;;;;5.25;60.73;99929.69;5054160;28;20029;-87
2022/01/30 05:33:50;;;;;;;12.07;2.10;;;;;;;5.31;60.46;99901.63;5058679;28;20018;-87
2022/01/30 05:36:16;;;;;;;23.40;2.65;;;;;;;5.27;61.14;99913.09;5058152;28;20124;-88
2022/01/30 05:38:42;;;;;;;19.23;1.95;;;;;;;5.26;60.55;99910.56;5055351;28;20454;-87
2022/01/30 05:41:07;;;;;;;16.60;2.75;;;;;;;5.26;61.17;99907.97;5056437;28;20595;-87
2022/01/30 05:43:34;;;;;;;18.60;3.55;;;;;;;5.22;60.73;99894.28;5056450;28;20036;-89
2022/01/30 05:46:12;;;;;;;15.15;2.47;;;;;;;5.21;61.08;99896.97;5054988;28;20071;-89
2022/01/30 05:48:38;;;;;;;15.75;2.60;;;;;;;5.19;60.20;99889.28;5056061;28;20531;-88
2022/01/30 05:51:03;;;;;;;23.38;2.88;;;;;;;5.13;61.39;99896.53;5050866;28;20128;-88
2022/01/30 05:53:29;;;;;;;12.18;2.40;;;;;;;5.05;61.67;99913.34;5056256;28;20037;-88
2022/01/30 05:55:55;;;;;;;17.67;2.33;;;;;;;4.99;61.93;99894.63;5055567;28;20029;-87
2022/01/30 05:58:20;;;;;;;15.15;2.25;;;;;;;4.93;63.02;99897.50;5057530;28;20033;-88
2022/01/30 06:00:46;;;;;;;8.30;2.10;;;;;;;4.84;63.62;99910.06;5057142;28;20452;-88
2022/01/30 06:03:11;;;;;;;19.05;3.22;;;;;;;4.89;63.79;99914.19;5059125;28;20043;-88
2022/01/30 06:05:38;;;;;;;11.32;2.03;;;;;;;4.86;64.29;99930.78;5053150;28;20480;-90
2022/01/30 06:08:37;;;;;;;10.38;2.10;;;;;;;4.88;64.47;99930.69;5052416;28;20035;-89
2022/01/30 06:10:58;;;;;;;13.38;2.33;;;;;;;4.88;64.83;99970.50;5050379;28;20028;-88
2022/01/30 06:13:23;;;;;;;16.23;2.75;;;;;;;4.95;64.53;99971.88;5052336;28;20422;-87
2022/01/30 06:15:49;;;;;;;17.42;2.88;;;;;;;4.95;64.68;99963.25;5054897;28;20080;-88
2022/01/30 06:18:17;;;;;;;11.95;2.80;;;;;;;4.90;65.71;99975.63;5054385;28;20139;-87
2022/01/30 06:20:42;;;;;;;18.90;2.20;;;;;;;4.81;65.62;99961.31;5052779;28;20037;-88
2022/01/30 06:23:08;;;;;;;12.93;2.55;;;;;;;4.78;66.61;99970.13;5054970;28;20446;-87
2022/01/30 06:25:33;;;;;;;13.00;3.00;;;;;;;4.71;67.21;99960.06;5055156;28;20029;-88
2022/01/30 06:27:59;;;;;;;20.25;2.78;;;;;;;4.70;66.17;99948.84;5051775;28;20128;-86
2022/01/30 06:30:24;;;;;;;20.05;4.00;;;;;;;4.66;67.18;99956.84;5048985;28;20041;-87
2022/01/30 06:32:50;;;;;;;17.42;3.55;;;;;;;4.66;66.16;99954.25;5054686;28;20106;-86
2022/01/30 06:35:19;;;;;;;24.30;2.85;;;;;;;4.79;64.15;99979.56;5057494;28;20033;-86
2022/01/30 06:37:44;;;;;;;20.25;3.17;;;;;;;4.85;62.91;99966.28;5056749;28;20037;-88
2022/01/30 06:40:12;;;;;;;21.17;3.15;;;;;;;4.92;61.63;100054.31;5055654;28;20028;-88
2022/01/30 06:42:50;;;;;;;15.70;2.73;;;;;;;4.94;61.21;99979.75;5058750;28;20029;-86
2022/01/30 06:45:19;;;;;;;15.30;3.15;;;;;;;4.95;61.99;99991.81;5052675;28;20060;-85
2022/01/30 06:47:51;;;;;;;17.70;2.38;;;;;;;4.90;62.02;100017.19;5051909;28;20112;-87
2022/01/30 06:50:17;;;;;;;16.77;2.95;;;;;;;4.90;62.06;99994.66;5056895;28;20626;-86
2022/01/30 06:52:43;;;;;;;18.75;3.03;;;;;;;4.89;61.86;99961.78;5047510;28;20098;-87
2022/01/30 06:55:10;;;;;;;16.85;3.17;;;;;;;4.97;61.20;100003.84;5052091;28;20033;-87
2022/01/30 06:57:42;;;;;;;23.02;3.13;;;;;;;4.89;61.62;99995.53;5052538;28;20024;-88
2022/01/30 07:00:08;;;;;;;27.50;3.17;;;;;;;4.94;61.12;100011.78;5053226;28;20037;-87
2022/01/30 07:02:33;;;;;;;20.50;3.00;;;;;;;4.87;61.40;99981.81;5053341;28;20053;-88
2022/01/30 07:05:06;;;;;;;23.52;4.38;;;;;;;4.85;61.76;100004.41;5051983;28;20033;-86
2022/01/30 07:07:34;;;;;;;21.77;3.80;;;;;;;4.84;61.94;99993.16;5032786;28;20036;-86
2022/01/30 07:10:01;;;;;;;20.88;3.88;;;;;;;4.92;61.36;99999.75;5068452;28;20033;-87
2022/01/30 07:12:27;;;;;;;33.55;4.00;;;;;;;4.84;62.25;100058.13;5058431;28;20097;-88
2022/01/30 07:14:58;;;;;;;29.30;4.68;;;;;;;4.79;62.38;100062.69;5048646;28;20421;-88
2022/01/30 07:17:23;;;;;;;22.98;4.70;;;;;;;4.84;62.13;100088.44;5036269;28;20045;-87
2022/01/30 07:19:49;;;;;;;25.00;4.07;;;;;;;4.81;62.61;100042.66;5050054;28;20047;-87
2022/01/30 07:22:17;;;;;;;28.40;4.22;;;;;;;4.78;62.84;100037.66;5050829;28;20029;-87
2022/01/30 07:24:45;;;;;;;17.52;3.22;;;;;;;4.83;62.78;100085.00;5042873;28;20367;-87
2022/01/30 07:27:11;;;;;;;37.38;4.60;;;;;;;4.83;63.24;100055.59;5048775;28;20143;-87
2022/01/30 07:29:37;;;;;;;33.33;5.95;;;;;;;4.83;63.30;100108.41;5046109;28;20041;-87
2022/01/30 07:32:02;;;;;;;25.85;3.72;;;;;;;4.84;63.31;100055.53;5064098;28;20041;-86
2022/01/30 07:34:28;;;;;;;26.65;3.90;;;;;;;4.84;63.36;100085.84;5049086;28;20389;-87
2022/01/30 07:36:57;;;;;;;28.65;4.32;;;;;;;4.87;62.76;100066.69;5051877;28;20017;-86
2022/01/30 07:39:27;;;;;;;30.20;4.80;;;;;;;4.89;62.55;100141.03;5043941;28;20117;-88
2022/01/30 07:41:52;;;;;;;23.95;4.63;;;;;;;4.85;63.29;100101.34;5051761;28;20033;-89
2022/01/30 07:44:18;;;;;;;31.92;4.57;;;;;;;4.98;61.96;100200.38;5049363;28;20496;-88
2022/01/30 07:46:43;;;;;;;24.58;3.72;;;;;;;4.98;62.19;100137.19;5047453;28;20135;-88
2022/01/30 07:49:11;;;;;;;33.65;4.47;;;;;;;4.97;62.10;100148.47;5054388;28;20070;-88
2022/01/30 07:51:37;;;;;;;26.02;4.05;;;;;;;4.97;61.96;100135.47;5051274;28;20107;-87
2022/01/30 07:54:02;;;;;;;29.02;4.53;;;;;;;4.91;62.63;100115.00;5050706;28;20128;-87
2022/01/30 07:56:30;;;;;;;14.55;2.95;;;;;;;4.90;61.96;100147.94;5052831;28;20040;-87
2022/01/30 07:58:58;;;;;;;24.45;4.10;;;;;;;4.92;62.17;100166.88;5051434;28;20044;-87
2022/01/30 08:01:23;;;;;;;26.75;6.20;;;;;;;4.86;62.53;100154.19;5046220;28;20501;-87
2022/01/30 08:03:51;;;;;;;21.67;4.78;;;;;;;4.91;62.08;100167.78;5051281;28;20135;-87
2022/01/30 08:06:19;;;;;;;38.22;4.63;;;;;;;4.92;61.92;100166.88;5042923;28;20033;-87
2022/01/30 08:08:46;;;;;;;30.08;3.97;;;;;;;4.97;62.21;100154.53;5050369;28;20041;-88
2022/01/30 08:11:12;;;;;;;27.02;4.05;;;;;;;5.03;61.52;100143.00;5050602;28;20470;-87
2022/01/30 08:13:38;;;;;;;37.05;5.57;;;;;;;5.07;61.53;100180.91;5052147;28;20056;-88
2022/01/30 08:16:03;;;;;;;31.13;4.03;;;;;;;5.05;61.87;100160.22;5050312;28;20112;-87
2022/01/30 08:18:29;;;;;;;27.58;4.10;;;;;;;5.07;61.55;100175.72;5053297;28;20104;-88
2022/01/30 08:20:55;;;;;;;26.15;3.95;;;;;;;5.10;61.21;100249.19;5050520;28;20032;-87
2022/01/30 08:23:23;;;;;;;29.63;4.40;;;;;;;5.14;61.01;100225.66;5050017;28;20661;-87
2022/01/30 08:25:48;;;;;;;19.23;3.97;;;;;;;5.16;61.22;100177.06;5054561;28;20049;-88
2022/01/30 08:28:14;;;;;;;31.58;6.55;;;;;;;5.14;61.27;100213.50;5052164;28;20074;-87
2022/01/30 08:30:40;;;;;;;28.13;3.97;;;;;;;5.16;61.39;100177.91;5050509;28;20407;-87
2022/01/30 08:33:08;;;;;;;33.47;4.45;;;;;;;5.18;60.88;100189.06;5044707;28;20041;-87
2022/01/30 08:35:33;;;;;;;29.50;3.80;;;;;;;5.20;60.91;100278.22;5053379;28;20028;-88
2022/01/30 08:38:07;;;;;;;30.77;4.13;;;;;;;5.21;61.22;100212.31;5042409;28;20044;-88
2022/01/30 08:40:32;;;;;;;27.30;5.13;;;;;;;5.22;60.80;100208.78;5049206;28;20424;-89
2022/01/30 08:42:58;;;;;;;32.80;5.47;;;;;;;5.24;60.21;100219.16;5052281;28;20035;-88
2022/01/30 08:45:23;;;;;;;30.13;3.90;;;;;;;5.25;60.89;100197.41;5053463;28;20503;-90
2022/01/30 08:47:51;;;;;;;43.55;7.15;;;;;;;5.24;60.58;100232.13;5054867;28;20083;-88
2022/01/30 08:50:18;;;;;;;27.10;3.78;;;;;;;5.26;60.04;100204.31;5059401;28;20041;-89
2022/01/30 08:52:47;;;;;;;24.75;5.63;;;;;;;5.27;59.95;100200.81;5054124;28;20056;-91
2022/01/30 08:55:16;;;;;;;31.42;4.75;;;;;;;5.27;60.00;100269.25;5051430;28;20468;-91
2022/01/30 08:57:42;;;;;;;29.25;3.67;;;;;;;5.31;59.78;100184.16;5050798;28;20045;-89
2022/01/30 09:00:17;;;;;;;26.13;3.67;;;;;;;5.27;59.83;100214.66;5032098;28;20033;-90
2022/01/30 09:03:20;;;;;;;27.42;4.82;;;;;;;5.30;59.95;100193.72;5052700;28;20053;-91
2022/01/30 09:05:48;;;;;;;30.33;5.50;;;;;;;5.28;59.89;100198.13;5030160;28;20037;-90
2022/01/30 09:08:17;;;;;;;28.17;3.67;;;;;;;5.29;59.85;100194.59;5050419;28;20029;-91
2022/01/30 09:10:43;;;;;;;37.60;4.43;;;;;;;5.32;59.17;100243.84;5049605;28;20067;-87
2022/01/30 09:13:13;;;;;;;24.42;4.25;;;;;;;5.36;58.93;100215.13;5048814;28;20029;-88
2022/01/30 09:15:43;;;;;;;18.80;3.55;;;;;;;5.34;59.21;100215.22;5052648;28;20017;-91
2022/01/30 09:18:17;;;;;;;33.00;5.22;;;;;;;5.33;59.54;100196.13;5052133;28;20045;-90
2022/01/30 09:20:49;;;;;;;34.33;5.32;;;;;;;5.36;60.16;100173.53;5045096;28;20064;-89
2022/01/30 09:23:15;;;;;;;35.67;5.20;;;;;;;5.37;59.61;100267.03;5048849;28;20064;-88
2022/01/30 09:25:50;;;;;;;41.80;5.72;;;;;;;5.37;58.83;100228.03;5057585;28;20036;-91
2022/01/30 09:28:28;;;;;;;33.75;5.13;;;;;;;5.39;59.78;100267.84;5034631;28;20152;-89
2022/01/30 09:30:57;;;;;;;43.25;6.18;;;;;;;5.40;59.23;100246.09;5045207;28;20020;-91
2022/01/30 09:33:23;;;;;;;35.65;5.70;;;;;;;5.41;58.93;100259.94;5058561;28;20025;-91
2022/01/30 09:35:51;;;;;;;45.72;6.35;;;;;;;5.40;58.91;100264.31;5054955;28;20521;-90
2022/01/30 09:38:25;;;;;;;28.85;5.28;;;;;;;5.41;59.16;100286.78;5047761;28;20056;-91
2022/01/30 09:41:12;;;;;;;41.92;5.45;;;;;;;5.40;59.32;100259.09;5061770;28;20120;-90
2022/01/30 09:43:44;;;;;;;22.38;4.18;;;;;;;5.41;59.10;100340.56;5050021;28;20048;-90
2022/01/30 09:46:18;;;;;;;32.40;6.30;;;;;;;5.43;59.33;100256.38;5058004;28;20446;-90
2022/01/30 09:48:47;;;;;;;23.52;4.63;;;;;;;5.46;59.24;100303.03;5057280;28;20037;-88
2022/01/30 09:51:12;;;;;;;35.88;5.30;;;;;;;5.43;58.66;100271.97;5053409;28;20037;-89
2022/01/30 09:53:43;;;;;;;31.40;5.78;;;;;;;5.44;58.32;100254.59;5053764;28;20025;-91
2022/01/30 09:56:11;;;;;;;37.60;6.40;;;;;;;5.46;58.84;100307.41;5054806;28;20048;-91
2022/01/30 09:58:36;;;;;;;32.88;4.45;;;;;;;5.47;58.62;100289.13;5055725;28;20036;-88
2022/01/30 10:01:04;;;;;;;35.05;4.05;;;;;;;5.51;58.35;100248.22;5056977;28;20029;-88
2022/01/30 10:03:35;;;;;;;41.60;5.85;;;;;;;5.45;58.96;100298.75;5057678;28;20032;-91
2022/01/30 10:06:08;;;;;;;27.63;5.15;;;;;;;5.49;58.57;100328.91;5058800;28;20068;-90
2022/01/30 10:08:57;;;;;;;;;;;;;;;;;;;;;
2022/01/30 10:11:31;;;;;;;32.00;5.65;;;;;;;5.49;58.57;100351.47;5057311;28;20116;-90
2022/01/30 10:14:07;;;;;;;39.80;5.65;;;;;;;5.46;58.14;100310.00;5054788;28;20037;-90
2022/01/30 10:16:36;;;;;;;26.45;3.78;;;;;;;5.49;58.18;100352.31;5071771;28;20044;-90
2022/01/30 10:19:12;;;;;;;31.88;6.18;;;;;;;5.46;57.80;100310.00;5046847;28;20020;-91
2022/01/30 10:21:41;;;;;;;33.30;4.85;;;;;;;5.47;58.05;100343.72;5061453;28;20047;-92
2022/01/30 10:24:27;;;;;;;;;;;;;;;5.49;58.08;100378.31;5056051;28;20120;-91
2022/01/30 10:26:57;;;;;;;44.05;5.85;;;;;;;5.48;58.13;100342.81;5047629;28;19940;-91
2022/01/30 10:29:28;;;;;;;38.45;5.85;;;;;;;5.50;57.50;100342.75;5055411;28;20052;-91
2022/01/30 10:32:20;;;;;;;32.47;5.15;;;;;;;5.50;58.10;100359.19;5054732;28;20473;-89
2022/01/30 10:35:31;;;;;;;;;;;;;;;;;;;;;
2022/01/30 10:38:17;;;;;;;44.35;5.10;;;;;;;5.59;56.70;100332.75;5003536;28;20137;-87
2022/01/30 10:41:11;;;;;;;31.38;4.90;;;;;;;5.61;56.32;100350.06;4993785;28;20045;-91
2022/01/30 10:44:01;;;;;;;46.65;6.97;;;;;;;5.58;56.66;100345.84;4985261;28;20048;-93
2022/01/30 10:46:48;;;;;;;29.13;4.65;;;;;;;5.57;56.19;100338.97;5010198;28;20130;-92
2022/01/30 10:49:23;;;;;;;32.33;5.22;;;;;;;5.61;56.05;100332.72;5002368;28;20182;-90
2022/01/30 10:52:22;;;;;;;27.20;4.43;;;;;;;5.68;56.30;100343.69;4986051;28;20038;-91
2022/01/30 10:54:50;;;;;;;37.53;5.97;;;;;;;5.65;56.09;100336.00;4946304;28;20532;-87
2022/01/30 10:57:21;;;;;;;31.88;5.88;;;;;;;5.68;56.39;100383.53;4995369;28;20109;-92
2022/01/30 10:59:53;;;;;;;44.50;5.50;;;;;;;5.65;56.94;100346.41;4988321;28;20038;-90
2022/01/30 11:02:24;;;;;;;35.55;5.05;;;;;;;5.72;56.59;100359.06;4969625;28;20030;-91
2022/01/30 11:05:06;;;;;;;43.00;5.70;;;;;;;5.66;56.46;100376.72;4985239;28;20040;-90
2022/01/30 11:07:47;;;;;;;48.47;6.45;;;;;;;5.69;57.29;100360.97;4973173;28;20038;-90
2022/01/30 11:10:25;;;;;;;31.42;4.88;;;;;;;5.68;57.49;100372.28;4995999;28;20122;-91
2022/01/30 11:13:09;;;;;;;34.80;5.18;;;;;;;5.55;57.63;100353.78;4983137;28;20400;-92
2022/01/30 11:15:43;;;;;;;28.48;4.70;;;;;;;5.62;57.74;100364.75;5000752;28;20121;-91
2022/01/30 11:18:25;;;;;;;47.15;5.88;;;;;;;5.63;57.34;100358.63;4983965;28;20043;-93
2022/01/30 11:21:14;;;;;;;;;;;;;;;;;;;;;
2022/01/30 11:24:15;;;;;;;36.58;4.75;;;;;;;5.69;56.14;100366.19;4982036;28;20242;-93
2022/01/30 11:27:02;;;;;;;;;;;;;;;;;;;;;
2022/01/30 11:29:34;;;;;;;41.13;4.88;;;;;;;5.64;56.67;100375.94;4991167;28;20098;-92
2022/01/30 11:32:10;;;;;;;29.13;3.35;;;;;;;5.63;56.86;100382.06;4963965;28;20042;-93
2022/01/30 11:34:45;;;;;;;36.70;4.63;;;;;;;5.69;57.30;100356.59;4969962;28;20058;-91
2022/01/30 11:38:00;;;;;;;48.47;6.13;;;;;;;5.69;57.09;100347.97;4995939;28;20045;-93
2022/01/30 11:40:30;;;;;;;46.70;5.72;;;;;;;5.60;56.49;100401.25;4972697;28;20047;-93
2022/01/30 11:43:20;;;;;;;;;;;;;;;;;;;;;
2022/01/30 11:46:22;;;;;;;41.10;4.85;;;;;;;5.72;56.68;100363.44;4996520;28;20133;-94
2022/01/30 11:49:40;;;;;;;41.17;7.10;;;;;;;5.68;57.02;100370.53;5002176;28;20026;-92
2022/01/30 11:52:23;;;;;;;38.40;5.32;;;;;;;5.72;57.29;100373.84;4983808;28;20049;-94
2022/01/30 11:55:07;;;;;;;36.58;5.30;;;;;;;5.74;56.90;100353.78;5002013;28;20035;-92
2022/01/30 11:58:31;;;;;;;46.05;6.05;;;;;;;5.68;56.43;100365.34;5000661;28;20038;-93
2022/01/30 12:05:08;;;;;;;38.70;6.03;;;;;;;5.66;56.68;100400.97;4963212;28;20121;-94
2022/01/30 12:08:20;;;;;;;41.75;6.72;;;;;;;5.64;56.58;100402.81;4924273;29;20109;-93
2022/01/30 12:10:51;;;;;;;45.13;6.75;;;;;;;5.68;57.26;100391.34;4940996;29;20278;-93
2022/01/30 12:13:52;;;;;;;43.10;6.57;;;;;;;5.69;57.44;100384.38;4931839;29;20501;-93
2022/01/30 12:16:52;;;;;;;36.25;6.22;;;;;;;5.64;57.16;100369.00;4909076;29;20080;-95
2022/01/30 12:26:16;;;;;;;39.92;6.20;;;;;;;5.62;57.54;100369.97;4879129;29;20422;-90
2022/01/30 12:28:43;;;;;;;54.40;6.15;;;;;;;5.70;57.62;100428.53;4877455;29;20052;-91
2022/01/30 12:31:29;;;;;;;41.80;5.53;;;;;;;5.68;57.28;100411.31;4877181;29;20096;-90
2022/01/30 12:34:01;;;;;;;47.40;7.22;;;;;;;5.68;57.02;100425.16;4875110;29;20057;-90
2022/01/30 12:36:33;;;;;;;37.55;8.07;;;;;;;5.68;57.14;100414.75;4858470;29;20034;-89
2022/01/30 12:39:06;;;;;;;52.22;7.35;;;;;;;5.69;57.39;100394.78;4863680;29;20037;-88
2022/01/30 12:41:34;;;;;;;46.58;6.35;;;;;;;5.70;57.25;100396.47;4872579;29;20046;-89
2022/01/30 12:44:03;;;;;;;48.92;7.28;;;;;;;5.72;57.53;100387.69;4858024;29;20033;-90
2022/01/30 12:46:36;;;;;;;41.25;6.32;;;;;;;5.73;57.22;100424.97;4880342;29;20493;-89
2022/01/30 12:49:08;;;;;;;47.85;6.45;;;;;;;5.68;57.32;100387.91;4896401;29;20113;-89
2022/01/30 12:51:38;;;;;;;48.90;7.80;;;;;;;5.68;56.77;100396.56;4908685;29;20826;-88
2022/01/30 12:54:05;;;;;;;37.78;5.32;;;;;;;5.64;57.15;100389.81;4895443;29;20049;-88
2022/01/30 12:56:31;;;;;;;37.90;5.10;;;;;;;5.68;57.50;100416.53;4907830;29;20426;-90
2022/01/30 12:59:06;;;;;;;34.60;4.95;;;;;;;5.68;57.59;100417.38;4949778;28;20054;-89
2022/01/30 13:01:39;;;;;;;50.03;7.28;;;;;;;5.68;57.73;100395.72;4954392;28;20147;-90